Time;durP1;ratioP1;P1;durP2;ratioP2;P2;SDS_P1;SDS_P2;PMS_P1;PMS_P2;Temp;Humidity;BMP_temperature;BMP_pressure;BME280_temperature;BME280_humidity;BME280_pressure;Samples;Min_cycle;Max_cycle;Signal;HPM_P1;HPM_P2
2021/03/02 00:01:47;;;;;;;12.43;10.70;;;7.90;60.30;;;;;;4998261;28;20194;-90
2021/03/02 00:04:13;;;;;;;12.27;10.97;;;7.90;60.30;;;;;;4997156;28;20190;-90
2021/03/02 00:06:39;;;;;;;13.17;11.30;;;7.80;60.60;;;;;;4998794;28;20189;-90
2021/03/02 00:09:06;;;;;;;15.67;12.10;;;7.70;60.90;;;;;;4995530;28;20288;-90
2021/03/02 00:11:32;;;;;;;14.30;11.50;;;7.80;61.10;;;;;;4996637;28;20553;-90
2021/03/02 00:13:58;;;;;;;12.37;10.93;;;7.80;61.50;;;;;;4997849;28;20578;-90
2021/03/02 00:16:25;;;;;;;12.40;10.93;;;7.80;60.90;;;;;;4999582;28;20175;-90
2021/03/02 00:18:56;;;;;;;14.90;11.57;;;7.70;61.40;;;;;;4997249;28;20241;-90
2021/03/02 00:21:28;;;;;;;12.73;11.37;;;7.70;61.40;;;;;;4998512;28;20240;-91
2021/03/02 00:23:57;;;;;;;12.80;11.07;;;7.70;61.20;;;;;;4998080;28;20181;-89
2021/03/02 00:26:27;;;;;;;13.23;10.67;;;7.70;61.30;;;;;;4998631;28;20175;-89
2021/03/02 00:28:55;;;;;;;12.63;11.10;;;7.60;62.00;;;;;;4996795;28;20198;-90
2021/03/02 00:31:22;;;;;;;13.53;10.50;;;7.60;61.80;;;;;;4979360;28;20703;-90
2021/03/02 00:33:48;;;;;;;12.20;10.70;;;7.50;61.50;;;;;;4995925;28;20187;-89
2021/03/02 00:36:13;;;;;;;12.47;11.17;;;7.50;61.50;;;;;;4997307;28;20178;-89
2021/03/02 00:38:39;;;;;;;13.00;11.70;;;7.50;61.90;;;;;;4997055;28;20205;-89
2021/03/02 00:41:05;;;;;;;12.83;11.37;;;6.80;62.00;;;;;;4997175;28;20186;-89
2021/03/02 00:43:30;;;;;;;12.77;11.40;;;6.70;64.10;;;;;;4996233;28;20198;-91
2021/03/02 00:45:56;;;;;;;12.40;9.87;;;6.60;63.60;;;;;;4995928;28;20198;-90
2021/03/02 00:48:22;;;;;;;12.87;10.37;;;6.70;65.40;;;;;;4996072;28;20269;-90
2021/03/02 00:50:48;;;;;;;13.07;10.80;;;6.70;64.50;;;;;;4996963;28;20711;-89
2021/03/02 00:53:13;;;;;;;14.00;10.53;;;6.80;63.50;;;;;;4996405;28;20186;-90
2021/03/02 00:55:39;;;;;;;12.97;10.33;;;6.80;64.50;;;;;;4995332;28;20285;-91
2021/03/02 00:58:04;;;;;;;14.80;10.00;;;6.80;63.80;;;;;;4995979;28;20182;-90
2021/03/02 01:00:30;;;;;;;11.50;10.30;;;6.80;64.60;;;;;;4995760;28;20269;-90
2021/03/02 01:02:56;;;;;;;12.00;10.27;;;6.90;64.60;;;;;;4979573;28;20190;-90
2021/03/02 01:05:22;;;;;;;11.37;9.53;;;7.00;64.40;;;;;;4995489;28;20322;-90
2021/03/02 01:07:47;;;;;;;12.10;10.37;;;7.00;63.70;;;;;;4995835;28;20221;-91
2021/03/02 01:10:14;;;;;;;11.13;9.93;;;7.00;63.00;;;;;;4996308;28;20664;-91
2021/03/02 01:12:39;;;;;;;13.07;10.67;;;6.90;63.70;;;;;;4997213;28;20237;-90
2021/03/02 01:15:07;;;;;;;11.67;10.43;;;6.90;63.80;;;;;;4980381;28;20658;-89
2021/03/02 01:17:33;;;;;;;14.17;10.63;;;6.90;63.70;;;;;;5002318;28;20190;-89
2021/03/02 01:19:59;;;;;;;12.30;10.30;;;6.80;63.50;;;;;;5006459;28;20477;-89
2021/03/02 01:22:25;;;;;;;12.47;11.17;;;6.80;63.60;;;;;;5001129;28;20645;-89
2021/03/02 01:24:50;;;;;;;13.73;10.70;;;6.70;64.20;;;;;;5000674;28;20198;-90
2021/03/02 01:27:16;;;;;;;10.93;9.70;;;6.80;64.10;;;;;;5001500;28;20305;-92
2021/03/02 01:29:42;;;;;;;10.43;9.40;;;6.70;64.10;;;;;;5000090;28;20210;-92
2021/03/02 01:32:07;;;;;;;11.77;9.57;;;6.60;64.30;;;;;;4999821;28;20206;-91
2021/03/02 01:34:34;;;;;;;11.83;9.57;;;6.60;64.20;;;;;;4999936;28;20197;-90
2021/03/02 01:37:00;;;;;;;11.90;10.40;;;6.50;62.90;;;;;;4998706;28;20193;-90
2021/03/02 01:39:26;;;;;;;12.73;9.83;;;6.40;65.30;;;;;;4999799;28;20234;-90
2021/03/02 01:41:53;;;;;;;11.77;10.10;;;6.40;65.00;;;;;;4999861;28;20178;-90
2021/03/02 01:44:19;;;;;;;11.27;9.67;;;6.50;65.40;;;;;;5000186;28;20197;-89
2021/03/02 01:46:47;;;;;;;10.70;9.60;;;6.50;64.90;;;;;;4998376;28;20194;-90
2021/03/02 01:49:13;;;;;;;12.10;10.80;;;6.50;65.10;;;;;;4998477;28;20225;-91
2021/03/02 01:51:38;;;;;;;10.73;9.63;;;6.50;64.40;;;;;;4998532;28;20645;-90
2021/03/02 01:54:05;;;;;;;13.33;10.70;;;6.40;65.10;;;;;;4982353;28;20182;-90
2021/03/02 01:56:30;;;;;;;10.70;9.60;;;6.30;65.90;;;;;;4982303;28;20190;-90
2021/03/02 01:58:56;;;;;;;11.20;10.00;;;6.40;65.20;;;;;;4998227;28;20222;-90
2021/03/02 02:01:22;;;;;;;11.23;10.07;;;6.30;65.50;;;;;;4997888;28;20272;-90
2021/03/02 02:04:00;;;;;;;11.67;9.80;;;6.30;65.30;;;;;;4999965;28;20189;-90
2021/03/02 02:06:31;;;;;;;11.47;10.37;;;6.30;65.10;;;;;;4998505;28;20629;-90
2021/03/02 02:09:21;;;;;;;11.03;9.53;;;6.30;65.10;;;;;;4998873;28;20221;-90
2021/03/02 02:12:07;;;;;;;10.37;9.17;;;6.20;65.20;;;;;;4997587;28;20245;-89
2021/03/02 02:14:56;;;;;;;10.80;9.70;;;6.20;65.30;;;;;;4999214;28;20503;-90
2021/03/02 02:17:30;;;;;;;11.20;10.00;;;6.10;64.70;;;;;;4998220;28;20194;-90
2021/03/02 02:20:01;;;;;;;10.90;9.17;;;6.00;65.00;;;;;;4997985;28;20288;-91
2021/03/02 02:22:48;;;;;;;11.20;9.63;;;5.90;65.00;;;;;;4997693;28;20348;-90
2021/03/02 02:25:16;;;;;;;10.33;9.23;;;5.90;66.00;;;;;;4999591;28;20533;-90
2021/03/02 02:27:43;;;;;;;12.63;10.50;;;5.90;66.10;;;;;;4998380;28;20699;-89
2021/03/02 02:30:10;;;;;;;10.37;9.20;;;5.80;66.10;;;;;;4981326;28;20690;-90
2021/03/02 02:32:38;;;;;;;11.27;10.07;;;5.80;65.50;;;;;;4997596;28;20210;-89
2021/03/02 02:35:05;;;;;;;13.80;10.70;;;5.90;65.60;;;;;;4981382;28;20277;-90
2021/03/02 02:37:32;;;;;;;12.50;9.97;;;5.80;64.80;;;;;;4998756;28;20189;-90
2021/03/02 02:39:59;;;;;;;15.07;10.20;;;5.80;66.60;;;;;;4997849;28;20218;-90
2021/03/02 02:42:26;;;;;;;11.73;9.93;;;5.80;66.50;;;;;;5003459;28;20182;-90
2021/03/02 02:44:53;;;;;;;12.60;9.17;;;5.80;66.20;;;;;;4984948;28;20193;-90
2021/03/02 02:47:19;;;;;;;11.90;9.67;;;5.70;66.60;;;;;;4997504;28;20202;-90
2021/03/02 02:49:47;;;;;;;11.50;10.30;;;5.70;66.50;;;;;;4980510;28;20239;-91
2021/03/02 02:52:17;;;;;;;12.20;9.13;;;5.60;66.80;;;;;;4998388;28;20210;-92
2021/03/02 02:54:48;;;;;;;11.53;10.33;;;5.50;66.60;;;;;;4981121;28;20591;-91
2021/03/02 02:57:17;;;;;;;11.50;10.23;;;5.60;66.60;;;;;;4981630;28;20187;-90
2021/03/02 02:59:46;;;;;;;12.50;10.93;;;5.60;66.50;;;;;;5001360;28;20224;-90
2021/03/02 03:02:20;;;;;;;12.03;10.40;;;5.60;67.20;;;;;;4997348;28;20182;-90
2021/03/02 03:04:59;;;;;;;13.13;10.80;;;5.50;67.70;;;;;;4998508;28;20240;-90
2021/03/02 03:07:32;;;;;;;15.07;10.43;;;5.60;67.90;;;;;;4983766;28;20272;-91
2021/03/02 03:10:00;;;;;;;11.67;10.30;;;5.70;68.20;;;;;;4995550;28;20233;-91
2021/03/02 03:12:28;;;;;;;13.57;11.20;;;5.70;68.20;;;;;;4996598;28;20208;-90
2021/03/02 03:15:01;;;;;;;12.63;10.53;;;5.70;68.10;;;;;;4995990;28;20285;-91
2021/03/02 03:17:41;;;;;;;14.83;11.20;;;5.70;67.90;;;;;;4996789;28;20646;-90
2021/03/02 03:20:10;;;;;;;13.43;10.53;;;5.70;67.80;;;;;;4996398;28;20237;-90
2021/03/02 03:22:38;;;;;;;10.73;9.33;;;5.60;66.50;;;;;;4996766;28;20186;-91
2021/03/02 03:25:05;;;;;;;11.27;9.50;;;5.60;67.00;;;;;;4982213;28;20266;-91
2021/03/02 03:27:32;;;;;;;11.23;10.07;;;5.60;66.50;;;;;;5000868;28;20183;-91
2021/03/02 03:30:00;;;;;;;11.17;9.97;;;5.60;66.70;;;;;;4997519;28;20218;-90
2021/03/02 03:32:27;;;;;;;11.37;9.83;;;5.60;66.30;;;;;;4996748;28;20182;-90
2021/03/02 03:34:54;;;;;;;12.87;10.07;;;5.50;66.30;;;;;;4997880;28;20178;-90
2021/03/02 03:37:20;;;;;;;11.47;10.10;;;5.50;66.00;;;;;;4997038;28;20730;-91
2021/03/02 03:39:46;;;;;;;11.67;9.70;;;5.40;67.60;;;;;;4996404;28;20206;-91
2021/03/02 03:42:12;;;;;;;11.83;9.93;;;5.40;67.00;;;;;;4997024;28;20645;-91
2021/03/02 03:44:37;;;;;;;11.07;9.90;;;5.40;66.40;;;;;;4996671;28;20253;-91
2021/03/02 03:47:04;;;;;;;12.83;9.93;;;5.30;66.60;;;;;;4996370;28;20190;-91
2021/03/02 03:49:30;;;;;;;11.53;10.33;;;5.20;68.10;;;;;;4996618;28;20226;-91
2021/03/02 03:51:57;;;;;;;13.07;9.80;;;5.20;67.60;;;;;;4996495;28;20593;-91
2021/03/02 03:54:25;;;;;;;11.87;9.00;;;5.20;67.10;;;;;;4996403;28;20244;-91
2021/03/02 03:56:52;;;;;;;11.90;10.50;;;5.20;67.60;;;;;;4980460;28;20182;-90
2021/03/02 03:59:20;;;;;;;14.90;11.30;;;5.30;67.10;;;;;;4997415;28;20237;-91
2021/03/02 04:01:46;;;;;;;12.87;10.63;;;5.20;68.20;;;;;;4996745;28;20197;-91
2021/03/02 04:04:13;;;;;;;13.33;9.67;;;5.20;68.50;;;;;;4997322;28;20189;-91
2021/03/02 04:06:39;;;;;;;12.17;10.27;;;5.20;69.70;;;;;;4998519;28;20237;-91
2021/03/02 04:09:05;;;;;;;10.77;9.17;;;5.10;67.20;;;;;;5002511;28;20571;-91
2021/03/02 04:11:35;;;;;;;11.77;10.27;;;5.00;67.90;;;;;;4996216;28;20193;-91
2021/03/02 04:14:01;;;;;;;12.30;10.47;;;5.00;68.20;;;;;;4997113;28;20187;-91
2021/03/02 04:16:27;;;;;;;10.93;9.77;;;5.00;68.30;;;;;;4979857;28;20186;-91
2021/03/02 04:18:52;;;;;;;11.93;9.67;;;5.00;68.50;;;;;;4998870;28;20213;-91
2021/03/02 04:21:18;;;;;;;13.43;9.90;;;5.00;68.10;;;;;;4980044;28;20558;-92
2021/03/02 04:23:44;;;;;;;10.50;9.40;;;5.10;67.80;;;;;;4980333;28;20197;-91
2021/03/02 04:26:10;;;;;;;10.23;9.13;;;5.00;67.60;;;;;;4996019;28;20194;-93
2021/03/02 04:28:35;;;;;;;12.40;9.87;;;5.00;67.60;;;;;;4995921;28;20613;-91
2021/03/02 04:31:01;;;;;;;11.03;9.43;;;5.00;67.90;;;;;;4997485;28;20684;-91
2021/03/02 04:33:27;;;;;;;12.23;10.07;;;5.00;67.10;;;;;;4996378;28;20187;-90
2021/03/02 04:35:53;;;;;;;11.00;9.57;;;5.00;67.40;;;;;;4996391;28;20743;-91
2021/03/02 04:38:19;;;;;;;11.03;9.77;;;5.00;67.90;;;;;;4997296;28;20179;-91
2021/03/02 04:40:44;;;;;;;10.70;9.53;;;4.90;67.20;;;;;;4996127;28;20573;-92
2021/03/02 04:43:10;;;;;;;13.87;10.37;;;4.90;67.30;;;;;;4982408;28;20194;-90
2021/03/02 04:45:36;;;;;;;11.13;9.93;;;4.90;67.00;;;;;;4980632;28;20190;-91
2021/03/02 04:48:02;;;;;;;11.27;8.97;;;4.80;67.20;;;;;;4997781;28;20217;-90
2021/03/02 04:50:28;;;;;;;10.70;8.93;;;4.90;67.50;;;;;;4999021;28;20245;-91
2021/03/02 04:52:54;;;;;;;11.80;9.73;;;4.80;67.30;;;;;;4983212;28;20179;-90
2021/03/02 04:55:19;;;;;;;11.83;8.73;;;4.80;67.60;;;;;;5001512;28;20236;-90
2021/03/02 04:57:45;;;;;;;10.83;9.23;;;4.80;67.30;;;;;;5001677;28;20186;-93
2021/03/02 05:00:11;;;;;;;11.63;9.47;;;4.80;67.70;;;;;;4999994;28;20214;-91
2021/03/02 05:02:37;;;;;;;9.77;8.40;;;4.70;67.50;;;;;;5000690;28;20183;-91
2021/03/02 05:05:04;;;;;;;9.63;8.40;;;4.70;67.80;;;;;;5002355;28;20249;-92
2021/03/02 05:07:30;;;;;;;11.83;9.43;;;4.70;67.60;;;;;;5000950;28;20236;-90
2021/03/02 05:09:55;;;;;;;10.43;9.40;;;4.60;66.50;;;;;;4984374;28;20222;-91
2021/03/02 05:12:21;;;;;;;12.63;9.63;;;4.50;68.90;;;;;;5000460;28;20178;-91
2021/03/02 05:14:47;;;;;;;11.70;8.67;;;4.50;68.30;;;;;;5000453;28;20178;-91
2021/03/02 05:17:12;;;;;;;13.23;9.93;;;4.50;68.40;;;;;;5001120;28;20237;-91
2021/03/02 05:19:38;;;;;;;10.30;8.53;;;4.50;67.70;;;;;;4984309;28;20214;-91
2021/03/02 05:22:04;;;;;;;12.37;9.73;;;4.50;68.50;;;;;;5001135;28;20187;-90
2021/03/02 05:24:30;;;;;;;12.10;9.93;;;4.50;69.30;;;;;;5002075;28;20190;-91
2021/03/02 05:26:55;;;;;;;10.57;8.17;;;4.50;67.90;;;;;;4984895;28;20281;-90
2021/03/02 05:29:21;;;;;;;10.07;9.00;;;4.50;67.80;;;;;;4984773;28;20218;-91
2021/03/02 05:31:47;;;;;;;14.10;9.90;;;4.40;67.90;;;;;;5006951;28;20592;-90
2021/03/02 05:34:13;;;;;;;11.40;9.63;;;4.30;68.60;;;;;;5005399;28;20190;-91
2021/03/02 05:36:39;;;;;;;12.93;9.10;;;4.30;68.20;;;;;;5001126;28;20269;-91
2021/03/02 05:39:06;;;;;;;12.63;8.77;;;4.30;69.00;;;;;;5001012;28;20237;-91
2021/03/02 05:41:33;;;;;;;11.33;9.30;;;4.30;68.90;;;;;;5001526;28;20178;-90
2021/03/02 05:43:59;;;;;;;12.23;9.50;;;4.30;68.80;;;;;;5000440;28;20182;-93
2021/03/02 05:46:25;;;;;;;10.27;8.67;;;4.30;69.30;;;;;;5002608;28;20193;-90
2021/03/02 05:48:51;;;;;;;12.90;9.67;;;4.30;69.60;;;;;;5000674;28;20282;-90
2021/03/02 05:51:20;;;;;;;11.27;9.10;;;4.30;69.30;;;;;;5001227;28;20226;-90
2021/03/02 05:53:46;;;;;;;10.47;8.87;;;4.20;69.30;;;;;;5001164;28;20183;-90
2021/03/02 05:56:13;;;;;;;28.63;10.20;;;4.00;70.20;;;;;;5001515;28;20221;-91
2021/03/02 05:58:38;;;;;;;17.27;10.73;;;4.00;70.80;;;;;;4982920;28;20202;-90
2021/03/02 06:01:05;;;;;;;15.83;11.03;;;4.10;70.50;;;;;;4983814;28;20666;-90
2021/03/02 06:03:37;;;;;;;16.70;9.30;;;4.10;70.30;;;;;;4999130;28;20193;-90
2021/03/02 06:06:06;;;;;;;13.67;9.60;;;4.00;69.90;;;;;;5002069;28;20189;-91
2021/03/02 06:08:32;;;;;;;12.27;10.30;;;4.00;70.80;;;;;;4999639;28;20202;-92
2021/03/02 06:11:23;;;;;;;12.00;9.27;;;3.90;71.10;;;;;;4999127;28;20287;-91
2021/03/02 06:13:49;;;;;;;14.80;10.07;;;4.00;70.70;;;;;;4999439;28;20656;-91
2021/03/02 06:16:15;;;;;;;16.83;10.07;;;4.00;69.80;;;;;;4981481;28;20182;-91
2021/03/02 06:18:51;;;;;;;12.60;9.73;;;4.00;70.20;;;;;;5000186;28;20209;-91
2021/03/02 06:21:17;;;;;;;10.90;9.20;;;4.10;70.10;;;;;;4982404;28;20181;-90
2021/03/02 06:23:53;;;;;;;15.00;9.10;;;4.10;70.10;;;;;;4998697;28;20187;-90
2021/03/02 06:26:24;;;;;;;13.03;9.93;;;4.10;69.90;;;;;;4998336;28;20213;-91
2021/03/02 06:28:56;;;;;;;12.67;9.53;;;4.10;69.80;;;;;;4998639;28;20244;-90
2021/03/02 06:31:44;;;;;;;10.60;8.83;;;4.10;69.70;;;;;;4998509;28;20205;-90
2021/03/02 06:34:17;;;;;;;13.87;9.47;;;4.10;69.50;;;;;;4998536;28;20189;-91
2021/03/02 06:36:55;;;;;;;16.50;10.37;;;4.10;69.80;;;;;;4999267;28;20182;-91
2021/03/02 06:39:35;;;;;;;13.10;10.13;;;4.00;69.70;;;;;;5001427;28;20205;-91
2021/03/02 06:42:19;;;;;;;11.37;10.17;;;4.00;70.30;;;;;;4999852;28;20170;-91
2021/03/02 06:45:08;;;;;;;13.33;10.60;;;4.10;70.80;;;;;;5001733;28;20178;-92
2021/03/02 06:47:42;;;;;;;12.43;10.47;;;4.10;71.00;;;;;;5000220;28;20202;-91
2021/03/02 06:50:14;;;;;;;12.03;9.73;;;4.10;71.00;;;;;;4999516;28;20236;-92
2021/03/02 06:52:43;;;;;;;14.73;10.57;;;4.20;70.30;;;;;;5013680;28;20181;-90
2021/03/02 06:55:15;;;;;;;12.93;10.20;;;4.10;70.50;;;;;;5014336;28;20151;-91
2021/03/02 06:57:41;;;;;;;13.87;11.27;;;4.20;70.90;;;;;;5017617;28;20209;-90
2021/03/02 07:00:07;;;;;;;14.07;10.73;;;4.10;71.40;;;;;;5011948;28;20233;-91
2021/03/02 07:02:43;;;;;;;13.87;10.83;;;4.20;71.00;;;;;;4999032;28;20210;-92
2021/03/02 07:05:15;;;;;;;14.33;10.20;;;4.20;70.90;;;;;;4998234;28;20260;-91
2021/03/02 07:07:43;;;;;;;13.93;11.20;;;4.30;70.90;;;;;;4998975;28;20161;-92
2021/03/02 07:10:11;;;;;;;11.33;10.00;;;4.30;70.70;;;;;;4998634;28;20218;-90
2021/03/02 07:12:38;;;;;;;10.90;9.70;;;4.30;70.50;;;;;;4999124;28;20711;-90
2021/03/02 07:15:08;;;;;;;11.60;10.00;;;4.30;70.30;;;;;;4998315;28;20190;-92
2021/03/02 07:17:44;;;;;;;11.80;9.90;;;4.30;70.60;;;;;;5002559;28;20182;-92
2021/03/02 07:20:11;;;;;;;13.23;9.63;;;4.30;70.90;;;;;;4996066;28;20219;-92
2021/03/02 07:22:42;;;;;;;15.43;9.37;;;4.30;70.90;;;;;;5000745;28;20178;-91
2021/03/02 07:25:09;;;;;;;15.90;10.47;;;4.30;71.50;;;;;;4999208;28;20217;-91
2021/03/02 07:27:41;;;;;;;13.70;10.03;;;4.40;71.60;;;;;;4999994;28;20258;-92
2021/03/02 07:30:09;;;;;;;11.20;9.67;;;4.40;71.50;;;;;;5000647;28;20289;-92
2021/03/02 07:32:35;;;;;;;11.00;9.50;;;4.50;72.00;;;;;;5000826;28;20179;-92
2021/03/02 07:35:01;;;;;;;14.27;9.90;;;4.60;71.50;;;;;;5001379;28;20190;-92
2021/03/02 07:37:27;;;;;;;11.50;9.33;;;4.60;71.20;;;;;;5003636;28;20246;-91
2021/03/02 07:40:10;;;;;;;12.23;8.73;;;4.50;73.00;;;;;;5001481;28;20237;-92
2021/03/02 07:42:37;;;;;;;15.33;10.00;;;4.60;72.00;;;;;;5001312;28;20186;-91
2021/03/02 07:45:17;;;;;;;12.20;10.00;;;4.70;71.80;;;;;;4978563;28;20238;-91
2021/03/02 07:47:51;;;;;;;13.50;10.10;;;4.70;71.60;;;;;;4997505;28;20174;-93
2021/03/02 07:50:27;;;;;;;12.33;9.00;;;4.80;72.10;;;;;;4997763;28;20202;-91
2021/03/02 07:53:18;;;;;;;12.47;9.40;;;4.90;72.30;;;;;;4996764;28;20209;-91
2021/03/02 07:55:44;;;;;;;12.03;9.73;;;4.90;72.20;;;;;;4997850;28;20273;-91
2021/03/02 07:58:28;;;;;;;12.53;9.70;;;5.00;72.20;;;;;;4996734;28;20229;-91
2021/03/02 08:01:17;;;;;;;14.63;10.50;;;5.10;72.20;;;;;;4996312;28;20277;-89
2021/03/02 08:03:46;;;;;;;12.10;9.70;;;5.20;72.20;;;;;;4997385;28;20221;-91
2021/03/02 08:06:21;;;;;;;14.03;10.60;;;5.20;72.60;;;;;;4996978;28;20186;-90
2021/03/02 08:08:47;;;;;;;12.63;9.87;;;5.30;72.50;;;;;;4996200;28;20248;-90
2021/03/02 08:11:36;;;;;;;15.57;11.17;;;5.40;72.30;;;;;;5013076;28;20284;-89
2021/03/02 08:14:21;;;;;;;14.23;11.27;;;5.50;72.20;;;;;;4997589;28;20201;-89
2021/03/02 08:16:56;;;;;;;16.13;11.30;;;5.60;71.60;;;;;;4993651;28;20333;-88
2021/03/02 08:19:40;;;;;;;15.30;11.00;;;5.60;71.80;;;;;;4994183;28;20207;-89
2021/03/02 08:22:21;;;;;;;14.97;11.20;;;5.70;71.70;;;;;;4984609;28;20179;-89
2021/03/02 08:24:58;;;;;;;15.23;11.10;;;5.70;71.70;;;;;;4987718;28;20182;-89
2021/03/02 08:27:46;;;;;;;16.00;11.83;;;5.70;72.60;;;;;;4999499;28;20189;-91
2021/03/02 08:30:32;;;;;;;13.03;11.33;;;5.70;72.20;;;;;;5001150;28;20324;-89
2021/03/02 08:33:02;;;;;;;13.00;10.60;;;5.80;71.90;;;;;;4994393;28;20182;-89
2021/03/02 08:35:32;;;;;;;12.87;11.47;;;5.90;71.40;;;;;;4998628;28;20214;-90
2021/03/02 08:37:58;;;;;;;13.70;10.80;;;5.90;70.60;;;;;;4999536;28;20588;-90
2021/03/02 08:40:45;;;;;;;11.60;10.17;;;6.00;70.60;;;;;;4999296;28;20222;-90
2021/03/02 08:43:18;;;;;;;13.37;10.10;;;6.00;70.40;;;;;;4998812;28;20190;-90
2021/03/02 08:45:58;;;;;;;14.33;11.07;;;6.00;70.20;;;;;;4996139;28;20205;-89
2021/03/02 08:48:29;;;;;;;12.60;10.60;;;6.00;70.20;;;;;;5002084;28;20201;-90
2021/03/02 08:50:56;;;;;;;12.67;10.70;;;6.10;70.30;;;;;;4999232;28;20225;-90
2021/03/02 08:53:28;;;;;;;12.63;11.33;;;5.90;71.20;;;;;;4999062;28;20186;-91
2021/03/02 08:55:54;;;;;;;13.83;11.33;;;5.90;71.50;;;;;;4998741;28;20673;-89
2021/03/02 08:58:40;;;;;;;14.20;11.07;;;6.00;70.90;;;;;;5000486;28;20546;-90
2021/03/02 09:01:13;;;;;;;13.90;11.63;;;6.20;70.50;;;;;;4999239;28;20198;-89
2021/03/02 09:03:42;;;;;;;13.77;11.93;;;6.30;70.50;;;;;;4978936;28;20281;-91
2021/03/02 09:06:28;;;;;;;12.70;11.17;;;6.20;71.20;;;;;;5000795;28;20261;-90
2021/03/02 09:08:59;;;;;;;14.67;11.67;;;6.10;70.70;;;;;;5000620;28;20233;-92
2021/03/02 09:11:38;;;;;;;14.97;11.63;;;6.20;71.30;;;;;;5000963;28;20273;-89
2021/03/02 09:14:19;;;;;;;14.73;12.50;;;6.40;71.40;;;;;;4998523;28;20686;-89
2021/03/02 09:16:49;;;;;;;17.00;12.87;;;6.50;71.90;;;;;;4996656;28;20593;-90
2021/03/02 09:19:29;;;;;;;17.30;12.20;;;6.50;72.80;;;;;;4997935;28;20206;-90
2021/03/02 09:22:07;;;;;;;14.00;11.90;;;6.60;72.00;;;;;;5010382;28;20704;-89
2021/03/02 09:24:36;;;;;;;14.77;11.80;;;6.80;70.30;;;;;;4999974;28;20182;-91
2021/03/02 09:27:04;;;;;;;15.37;12.23;;;6.90;69.90;;;;;;4998229;28;20213;-90
2021/03/02 09:29:44;;;;;;;17.40;13.53;;;6.90;71.70;;;;;;5000645;28;20297;-91
2021/03/02 09:32:11;;;;;;;16.93;11.60;;;6.90;71.90;;;;;;4997431;28;20292;-91
2021/03/02 09:34:46;;;;;;;14.30;11.47;;;7.10;70.10;;;;;;4999722;28;20182;-89
2021/03/02 09:37:18;;;;;;;13.27;11.53;;;7.40;67.40;;;;;;4992079;28;20186;-89
2021/03/02 09:39:55;;;;;;;13.47;11.43;;;7.40;67.90;;;;;;5000092;28;20305;-91
2021/03/02 09:42:28;;;;;;;14.40;11.67;;;7.50;68.60;;;;;;5002545;28;20665;-88
2021/03/02 09:44:58;;;;;;;12.67;11.30;;;7.70;67.00;;;;;;5000958;28;20226;-88
2021/03/02 09:47:28;;;;;;;13.03;10.73;;;7.90;66.00;;;;;;4999651;28;20665;-89
2021/03/02 09:50:07;;;;;;;12.30;11.10;;;8.10;64.40;;;;;;4998796;28;20214;-90
2021/03/02 09:52:52;;;;;;;13.80;12.33;;;8.30;64.40;;;;;;5002687;28;20182;-89
2021/03/02 09:55:32;;;;;;;14.33;12.90;;;8.60;63.20;;;;;;4997117;28;20260;-90
2021/03/02 09:57:59;;;;;;;15.40;12.27;;;8.70;62.30;;;;;;5000093;28;20206;-90
2021/03/02 10:00:30;;;;;;;15.13;12.93;;;8.60;62.60;;;;;;4996028;28;20621;-90
2021/03/02 10:03:21;;;;;;;16.60;12.87;;;8.40;62.90;;;;;;4995548;28;20217;-89
2021/03/02 10:05:57;;;;;;;15.57;12.73;;;8.60;63.90;;;;;;5006741;28;20688;-88
2021/03/02 10:08:27;;;;;;;13.87;12.47;;;8.70;63.20;;;;;;4998490;28;20186;-88
2021/03/02 10:10:55;;;;;;;15.20;13.57;;;9.00;62.30;;;;;;4998777;28;20297;-88
2021/03/02 10:13:26;;;;;;;17.27;13.07;;;9.40;59.90;;;;;;4999430;28;20194;-87
2021/03/02 10:16:30;;;;;;;15.47;12.93;;;9.70;59.30;;;;;;5000258;28;20223;-88
2021/03/02 10:19:02;;;;;;;15.70;12.60;;;9.90;58.60;;;;;;4999453;28;20194;-87
2021/03/02 10:21:35;;;;;;;16.37;13.40;;;10.20;56.80;;;;;;4999128;28;20556;-88
2021/03/02 10:24:01;;;;;;;14.53;13.03;;;10.30;56.50;;;;;;4996112;28;20245;-88
2021/03/02 10:26:30;;;;;;;15.77;14.27;;;10.40;56.30;;;;;;4999629;28;20289;-88
2021/03/02 10:28:57;;;;;;;16.30;14.33;;;10.50;56.00;;;;;;4998625;28;20201;-88
2021/03/02 10:31:22;;;;;;;15.70;13.70;;;10.70;55.50;;;;;;4996611;28;20214;-88
2021/03/02 10:33:49;;;;;;;14.87;13.37;;;11.10;54.40;;;;;;4997097;28;20212;-89
2021/03/02 10:36:22;;;;;;;16.03;14.43;;;11.50;54.30;;;;;;4998442;28;20205;-88
2021/03/02 10:38:49;;;;;;;15.70;13.47;;;11.70;52.50;;;;;;4998622;28;20230;-88
2021/03/02 10:41:15;;;;;;;16.17;13.90;;;11.90;52.20;;;;;;4994084;28;20187;-88
2021/03/02 10:43:41;;;;;;;15.33;13.83;;;11.90;51.90;;;;;;4997352;28;20746;-87
2021/03/02 10:46:07;;;;;;;15.43;13.83;;;11.90;52.70;;;;;;4990867;28;20207;-88
2021/03/02 10:48:32;;;;;;;15.10;13.63;;;12.10;51.50;;;;;;4996448;28;20191;-88
2021/03/02 10:50:58;;;;;;;16.10;14.60;;;12.20;50.80;;;;;;4997080;28;20230;-88
2021/03/02 10:53:24;;;;;;;15.70;14.10;;;12.20;52.20;;;;;;4996895;28;20193;-88
2021/03/02 10:55:51;;;;;;;16.83;14.67;;;12.30;50.90;;;;;;4996668;28;20226;-88
2021/03/02 10:58:17;;;;;;;17.20;14.67;;;12.60;50.90;;;;;;4999154;28;20258;-88
2021/03/02 11:00:43;;;;;;;15.83;14.23;;;12.60;51.30;;;;;;4999178;28;20271;-87
2021/03/02 11:03:09;;;;;;;19.03;14.50;;;12.80;50.10;;;;;;4996381;28;20201;-87
2021/03/02 11:05:35;;;;;;;16.83;15.10;;;12.80;49.90;;;;;;4997510;28;20225;-87
2021/03/02 11:08:01;;;;;;;16.37;14.67;;;13.10;48.90;;;;;;4998076;28;20596;-88
2021/03/02 11:10:27;;;;;;;16.47;14.87;;;13.30;49.80;;;;;;4999730;28;20221;-87
2021/03/02 11:12:52;;;;;;;17.00;15.20;;;13.40;47.90;;;;;;4996951;28;20201;-88
2021/03/02 11:15:18;;;;;;;18.00;15.90;;;13.50;47.90;;;;;;4995402;28;20194;-88
2021/03/02 11:17:44;;;;;;;15.93;14.50;;;13.60;48.00;;;;;;4995050;28;20657;-88
2021/03/02 11:20:10;;;;;;;15.40;13.77;;;13.80;48.00;;;;;;4996280;28;20580;-87
2021/03/02 11:22:35;;;;;;;15.40;13.90;;;14.00;48.00;;;;;;4991448;28;20191;-87
2021/03/02 11:25:01;;;;;;;18.03;14.83;;;14.50;46.40;;;;;;4996164;28;20205;-87
2021/03/02 11:27:27;;;;;;;16.27;14.67;;;14.40;45.30;;;;;;4995958;28;20217;-88
2021/03/02 11:29:52;;;;;;;19.10;15.63;;;14.50;45.60;;;;;;4995525;28;20224;-88
2021/03/02 11:32:18;;;;;;;17.43;15.57;;;14.90;44.50;;;;;;4999025;28;20195;-88
2021/03/02 11:34:44;;;;;;;17.27;15.57;;;14.90;44.70;;;;;;4997861;28;20184;-89
2021/03/02 11:37:10;;;;;;;17.10;15.30;;;15.30;43.80;;;;;;4994679;28;20197;-87
2021/03/02 11:39:36;;;;;;;17.17;15.57;;;15.50;43.10;;;;;;4998341;28;20558;-87
2021/03/02 11:42:01;;;;;;;16.60;15.03;;;15.50;42.90;;;;;;4996255;28;20197;-88
2021/03/02 11:44:29;;;;;;;17.67;16.07;;;15.70;42.70;;;;;;4998463;28;20199;-88
2021/03/02 11:46:55;;;;;;;16.97;15.27;;;15.60;42.10;;;;;;4999564;28;20190;-88
2021/03/02 11:49:21;;;;;;;17.17;15.67;;;15.80;41.70;;;;;;4990160;28;20237;-88
2021/03/02 11:51:46;;;;;;;17.90;16.20;;;16.20;41.40;;;;;;4993230;28;20194;-88
2021/03/02 11:54:12;;;;;;;17.53;15.87;;;16.20;41.60;;;;;;4978204;28;20193;-87
2021/03/02 11:56:37;;;;;;;18.20;16.40;;;16.20;40.80;;;;;;4978269;28;20191;-88
2021/03/02 11:59:03;;;;;;;17.93;16.17;;;16.00;41.70;;;;;;4976432;28;20230;-88
2021/03/02 12:01:29;;;;;;;18.27;16.07;;;16.10;42.10;;;;;;4976576;28;20570;-87
2021/03/02 12:03:54;;;;;;;17.43;15.73;;;16.30;41.70;;;;;;4991121;28;20202;-87
2021/03/02 12:06:20;;;;;;;18.43;16.67;;;16.30;41.00;;;;;;4976868;28;20196;-87
2021/03/02 12:08:45;;;;;;;17.83;15.80;;;16.10;41.90;;;;;;4993148;28;20213;-87
2021/03/02 12:11:11;;;;;;;17.37;15.57;;;16.50;40.70;;;;;;4978634;28;20258;-88
2021/03/02 12:13:37;;;;;;;18.13;16.33;;;16.70;39.90;;;;;;4977972;28;20191;-87
2021/03/02 12:16:02;;;;;;;17.17;15.53;;;16.70;39.70;;;;;;4977927;28;20198;-87
2021/03/02 12:18:28;;;;;;;19.40;17.43;;;16.70;40.00;;;;;;4974333;28;20192;-89
2021/03/02 12:20:54;;;;;;;17.87;15.93;;;16.40;40.40;;;;;;4991463;28;20201;-88
2021/03/02 12:23:20;;;;;;;24.33;17.87;;;16.50;41.40;;;;;;4970523;28;20200;-88
2021/03/02 12:25:45;;;;;;;18.53;16.73;;;16.80;39.80;;;;;;4977124;28;20194;-88
2021/03/02 12:28:11;;;;;;;18.33;16.43;;;17.30;38.60;;;;;;4975813;28;20625;-87
2021/03/02 12:30:37;;;;;;;18.70;16.90;;;17.80;38.00;;;;;;4977315;28;20252;-89
2021/03/02 12:33:03;;;;;;;18.53;16.60;;;17.00;39.20;;;;;;4977260;28;20196;-87
2021/03/02 12:35:28;;;;;;;17.73;15.93;;;17.30;38.80;;;;;;4979837;28;20286;-86
2021/03/02 12:37:54;;;;;;;18.67;16.63;;;18.00;37.50;;;;;;4986299;28;20628;-87
2021/03/02 12:40:20;;;;;;;18.63;16.73;;;18.40;36.50;;;;;;4974305;28;20221;-86
2021/03/02 12:42:46;;;;;;;18.27;16.57;;;18.80;36.00;;;;;;4974966;28;20216;-87
2021/03/02 12:45:12;;;;;;;18.73;16.83;;;18.30;35.90;;;;;;4974211;28;20187;-88
2021/03/02 12:47:38;;;;;;;18.67;16.83;;;17.40;38.00;;;;;;4988976;28;20232;-87
2021/03/02 12:50:08;;;;;;;18.03;16.17;;;17.90;37.30;;;;;;4973910;28;20231;-87